Time;durP1;ratioP1;P1;durP2;ratioP2;P2;SDS_P1;SDS_P2;PMS_P1;PMS_P2;Temp;Humidity;BMP_temperature;BMP_pressure;BME280_temperature;BME280_humidity;BME280_pressure;Samples;Min_cycle;Max_cycle;Signal;HPM_P1;HPM_P2
2022/08/17 00:03:46;;;;;;;8.10;6.55;;;14.10;99.90;;;;;;8342120;28;20035;-80
2022/08/17 00:07:46;;;;;;;7.47;5.82;;;14.00;99.90;;;;;;8334880;28;20060;-80
2022/08/17 00:11:48;;;;;;;8.93;6.22;;;13.80;99.90;;;;;;8355473;28;20033;-81
2022/08/17 00:15:49;;;;;;;8.07;6.38;;;13.70;99.90;;;;;;8351377;28;20025;-80
2022/08/17 00:19:49;;;;;;;7.13;6.30;;;13.80;99.90;;;;;;8360468;28;20031;-80
2022/08/17 00:23:50;;;;;;;9.60;6.18;;;13.80;99.90;;;;;;8368139;28;20096;-80
2022/08/17 00:27:51;;;;;;;7.85;6.43;;;13.60;99.90;;;;;;8343251;28;20022;-80
2022/08/17 00:31:52;;;;;;;8.50;6.65;;;13.40;99.90;;;;;;8349279;28;20556;-81
2022/08/17 00:35:52;;;;;;;7.90;6.32;;;13.30;99.90;;;;;;8350189;28;20013;-80
2022/08/17 00:39:53;;;;;;;9.65;6.75;;;13.40;99.90;;;;;;8365635;28;20052;-81
2022/08/17 00:43:57;;;;;;;6.68;6.00;;;13.40;99.90;;;;;;8361244;28;20021;-80
2022/08/17 00:47:57;;;;;;;8.27;6.70;;;13.30;99.90;;;;;;8380609;28;20029;-81
2022/08/17 00:52:07;;;;;;;7.07;6.32;;;13.40;99.90;;;;;;8349254;28;20021;-80
2022/08/17 00:56:13;;;;;;;8.57;6.60;;;13.50;99.90;;;;;;8347765;28;20116;-79
2022/08/17 01:00:20;;;;;;;8.60;6.78;;;13.60;99.90;;;;;;8372931;28;20048;-80
2022/08/17 01:04:21;;;;;;;8.23;6.70;;;13.70;99.90;;;;;;8345346;28;20560;-80
2022/08/17 01:08:26;;;;;;;8.32;6.72;;;13.50;99.90;;;;;;8380410;28;20083;-81
2022/08/17 01:12:27;;;;;;;9.57;7.60;;;13.30;99.90;;;;;;8363953;28;20025;-79
2022/08/17 01:16:31;;;;;;;8.60;6.82;;;13.30;99.90;;;;;;8364666;28;20514;-81
2022/08/17 01:20:31;;;;;;;8.88;6.70;;;13.20;99.90;;;;;;8378660;28;20174;-79
2022/08/17 01:24:33;;;;;;;7.93;6.80;;;13.20;99.90;;;;;;8342244;28;20498;-81
2022/08/17 01:28:36;;;;;;;7.30;6.57;;;13.20;99.90;;;;;;8394709;22;20419;-77
2022/08/17 01:32:38;;;;;;;7.35;6.50;;;13.20;99.90;;;;;;8376218;28;20418;-77
2022/08/17 01:36:41;;;;;;;10.38;7.20;;;13.00;99.90;;;;;;8361590;28;20074;-77
2022/08/17 01:40:51;;;;;;;8.50;7.03;;;12.90;99.90;;;;;;8376926;28;20406;-77
2022/08/17 01:44:55;;;;;;;8.43;7.10;;;12.90;99.90;;;;;;8348417;28;20026;-77
2022/08/17 01:48:57;;;;;;;7.45;6.65;;;13.00;99.90;;;;;;8366412;28;20033;-76
2022/08/17 01:53:07;;;;;;;9.00;6.43;;;13.00;99.90;;;;;;8344883;28;20104;-77
2022/08/17 01:57:09;;;;;;;7.80;6.70;;;12.90;99.90;;;;;;8376642;28;20072;-77
2022/08/17 02:01:13;;;;;;;8.43;7.15;;;12.90;99.90;;;;;;8344811;28;20109;-77
2022/08/17 02:05:14;;;;;;;8.88;7.03;;;12.80;99.90;;;;;;8375229;28;20384;-77
2022/08/17 02:09:14;;;;;;;8.82;7.20;;;12.80;99.90;;;;;;8335607;28;20025;-77
2022/08/17 02:13:15;;;;;;;8.90;7.70;;;12.70;99.90;;;;;;8343983;28;20032;-78
2022/08/17 02:17:16;;;;;;;9.75;7.30;;;12.60;99.90;;;;;;8335649;28;20026;-77
2022/08/17 02:21:17;;;;;;;9.50;7.43;;;12.60;99.90;;;;;;8345502;28;20552;-77
2022/08/17 02:25:19;;;;;;;9.82;7.07;;;12.70;99.90;;;;;;8360255;28;20025;-77
2022/08/17 02:29:20;;;;;;;8.23;6.90;;;12.70;99.90;;;;;;8358770;28;20119;-77
2022/08/17 02:33:21;;;;;;;7.53;6.60;;;12.70;99.90;;;;;;8349510;28;20040;-77
2022/08/17 02:37:21;;;;;;;9.40;6.80;;;12.60;99.90;;;;;;8349220;28;20022;-77
2022/08/17 02:41:22;;;;;;;9.30;7.43;;;12.30;99.90;;;;;;8367830;28;20078;-77
2022/08/17 02:45:23;;;;;;;8.63;7.53;;;12.20;99.90;;;;;;8375324;28;20082;-77
2022/08/17 02:49:24;;;;;;;7.95;6.97;;;12.20;99.90;;;;;;8364990;28;20514;-77
2022/08/17 02:53:25;;;;;;;11.55;7.50;;;12.20;99.90;;;;;;8351912;28;20131;-77
2022/08/17 02:57:25;;;;;;;13.15;7.97;;;12.00;99.90;;;;;;8358649;28;20025;-77
2022/08/17 03:01:26;;;;;;;9.45;7.75;;;11.90;99.90;;;;;;8339314;28;20036;-77
2022/08/17 03:05:30;;;;;;;9.30;7.30;;;11.80;99.90;;;;;;8341874;28;20021;-77
2022/08/17 03:09:31;;;;;;;10.38;7.45;;;11.80;99.90;;;;;;8344069;28;20083;-76
2022/08/17 03:13:32;;;;;;;10.70;7.72;;;11.90;99.90;;;;;;8357124;28;20025;-77
2022/08/17 03:17:32;;;;;;;11.65;8.35;;;12.10;99.90;;;;;;8346510;28;20108;-77
2022/08/17 03:21:33;;;;;;;9.35;7.65;;;12.50;99.90;;;;;;8358629;28;20102;-77
2022/08/17 03:25:37;;;;;;;8.52;7.28;;;12.60;99.90;;;;;;8366229;28;20122;-77
2022/08/17 03:29:38;;;;;;;8.85;7.65;;;12.40;99.90;;;;;;8342455;28;20040;-77
2022/08/17 03:33:39;;;;;;;10.55;8.25;;;12.30;99.90;;;;;;8346678;28;20017;-77
2022/08/17 03:37:39;;;;;;;10.60;8.48;;;12.10;99.90;;;;;;8346526;28;20025;-77
2022/08/17 03:41:40;;;;;;;11.10;8.95;;;12.30;99.90;;;;;;8365275;28;20028;-76
2022/08/17 03:58:39;;;;;;;11.63;8.13;;;12.10;99.90;;;;;;8339996;28;20107;-84
2022/08/17 04:02:41;;;;;;;10.50;7.93;;;11.90;99.90;;;;;;8368329;28;20021;-83
2022/08/17 04:06:42;;;;;;;8.70;7.40;;;11.80;99.90;;;;;;8342945;28;20022;-83
2022/08/17 04:10:43;;;;;;;10.60;8.82;;;11.90;99.90;;;;;;8348495;28;20505;-84
2022/08/17 04:14:43;;;;;;;10.65;8.80;;;11.80;99.90;;;;;;8366955;28;20029;-83
2022/08/17 04:18:44;;;;;;;9.20;7.80;;;11.70;99.90;;;;;;8353995;28;20017;-83
2022/08/17 04:22:56;;;;;;;9.32;7.80;;;12.00;99.90;;;;;;8335642;28;20126;-83
2022/08/17 04:26:57;;;;;;;10.02;8.00;;;11.80;99.90;;;;;;8356688;28;20033;-83
2022/08/17 04:30:58;;;;;;;9.98;8.38;;;11.70;99.90;;;;;;8353320;28;20092;-76
2022/08/17 04:34:59;;;;;;;11.98;8.98;;;11.50;99.90;;;;;;8354241;28;20040;-77
2022/08/17 04:39:00;;;;;;;13.60;9.43;;;11.50;99.90;;;;;;8330790;28;20108;-76
2022/08/17 04:43:03;;;;;;;11.57;9.15;;;11.60;99.90;;;;;;8334524;28;20036;-76
2022/08/17 04:47:05;;;;;;;10.68;9.27;;;11.80;99.90;;;;;;8349924;28;20033;-77
2022/08/17 04:51:12;;;;;;;9.48;8.07;;;11.80;99.90;;;;;;8357059;28;20494;-77
2022/08/17 04:55:14;;;;;;;11.50;8.05;;;12.30;99.90;;;;;;8362579;28;20521;-77
2022/08/17 04:59:17;;;;;;;10.45;8.65;;;12.60;99.90;;;;;;8339562;28;20018;-76
2022/08/17 05:03:18;;;;;;;9.43;8.15;;;12.70;99.90;;;;;;8345280;28;20124;-77
2022/08/17 05:07:18;;;;;;;9.43;8.07;;;13.10;99.90;;;;;;8343443;28;20025;-77
2022/08/17 05:11:20;;;;;;;10.82;8.27;;;12.90;99.90;;;;;;8321628;28;20559;-76
2022/08/17 05:15:20;;;;;;;11.27;8.30;;;12.90;99.90;;;;;;8322723;28;20022;-76
2022/08/17 05:19:21;;;;;;;9.00;7.57;;;13.20;99.90;;;;;;8343154;28;20029;-76
2022/08/17 05:23:24;;;;;;;10.60;7.90;;;13.50;99.90;;;;;;8352733;28;20060;-76
2022/08/17 05:27:24;;;;;;;10.07;8.07;;;13.40;99.90;;;;;;8354674;28;20028;-76
2022/08/17 05:31:27;;;;;;;10.75;8.05;;;13.60;99.90;;;;;;8351826;28;20025;-76
2022/08/17 05:35:30;;;;;;;8.77;7.80;;;13.70;99.90;;;;;;8361360;28;20051;-77
2022/08/17 05:39:31;;;;;;;11.52;8.55;;;14.10;99.90;;;;;;8331689;28;20029;-76
2022/08/17 05:43:35;;;;;;;13.43;8.98;;;14.60;99.90;;;;;;8318326;28;20734;-76
2022/08/17 05:47:38;;;;;;;15.13;9.00;;;15.00;99.90;;;;;;8342366;28;20032;-76
2022/08/17 05:51:57;;;;;;;9.73;8.40;;;15.40;99.90;;;;;;8328924;28;20092;-76
2022/08/17 05:56:31;;;;;;;9.43;8.43;;;15.80;99.90;;;;;;8375888;28;20075;-76
2022/08/17 06:00:54;;;;;;;10.57;7.85;;;16.90;99.90;;;;;;8376550;28;20682;-78
2022/08/17 06:05:18;;;;;;;12.80;8.25;;;18.40;99.90;;;;;;8325508;28;20039;-78
2022/08/17 06:09:38;;;;;;;9.70;7.70;;;19.80;99.90;;;;;;8342100;28;20029;-78
2022/08/17 06:13:44;;;;;;;9.80;7.47;;;20.60;99.90;;;;;;8375993;28;20025;-78
2022/08/17 06:17:45;;;;;;;9.43;7.88;;;21.50;99.90;;;;;;8331955;28;20080;-77
2022/08/17 06:21:50;;;;;;;9.80;7.65;;;22.20;99.90;;;;;;8332435;28;20077;-77
2022/08/17 06:25:56;;;;;;;8.43;7.00;;;22.00;99.90;;;;;;8341222;28;20033;-77
2022/08/17 06:30:08;;;;;;;8.68;7.78;;;21.50;99.90;;;;;;8342680;28;20025;-77
2022/08/17 06:34:10;;;;;;;9.18;7.10;;;22.20;99.90;;;;;;8358449;28;20033;-78
2022/08/17 06:38:34;;;;;;;8.63;7.03;;;23.00;99.90;;;;;;8373681;28;20071;-77
2022/08/17 06:42:54;;;;;;;10.10;7.38;;;23.10;99.90;;;;;;8348274;28;20017;-77
2022/08/17 06:47:11;;;;;;;8.80;7.68;;;23.60;99.90;;;;;;8367557;28;20030;-78
2022/08/17 06:51:14;;;;;;;9.10;8.05;;;23.60;99.90;;;;;;8335682;28;20095;-78
2022/08/17 06:55:38;;;;;;;9.05;7.68;;;23.30;99.90;;;;;;8358537;28;20029;-78
2022/08/17 06:59:56;;;;;;;12.10;8.07;;;23.40;99.90;;;;;;8350218;28;20037;-78
2022/08/17 07:04:05;;;;;;;11.05;8.55;;;23.80;99.90;;;;;;8371118;28;20031;-78
2022/08/17 07:08:21;;;;;;;10.90;7.27;;;24.50;99.90;;;;;;8341714;28;20021;-77
2022/08/17 07:12:28;;;;;;;10.05;7.30;;;24.90;99.90;;;;;;8349090;28;20032;-77
2022/08/17 07:16:35;;;;;;;9.80;8.82;;;25.20;99.90;;;;;;8350882;28;20086;-78
2022/08/17 07:20:39;;;;;;;11.38;7.35;;;25.40;99.90;;;;;;8335743;28;20597;-78
2022/08/17 07:24:57;;;;;;;8.00;7.20;;;26.70;99.90;;;;;;8347402;28;20100;-78
2022/08/17 07:28:59;;;;;;;10.48;7.25;;;26.90;99.90;;;;;;8372443;22;20045;-83
2022/08/17 07:33:09;;;;;;;8.73;7.10;;;27.40;99.90;;;;;;8314525;28;20033;-83
2022/08/17 07:37:11;;;;;;;9.75;6.47;;;27.40;99.90;;;;;;8314842;28;20029;-83
2022/08/17 07:41:12;;;;;;;9.52;6.28;;;27.30;99.90;;;;;;8288959;28;20101;-82
2022/08/17 07:48:18;;;;;;;8.30;6.32;;;26.90;99.20;;;;;;8304644;28;20087;-83
2022/08/17 07:49:37;;;;;;;7.97;5.85;;;26.10;99.90;;;;;;8298841;28;20064;-82
2022/08/17 07:53:38;;;;;;;8.38;6.57;;;25.80;99.90;;;;;;8298421;28;20028;-83
2022/08/17 07:57:39;;;;;;;6.53;5.82;;;26.10;99.90;;;;;;8303092;28;20014;-82
2022/08/17 08:01:44;;;;;;;6.72;5.30;;;27.10;99.90;;;;;;8319600;28;20022;-83
2022/08/17 08:05:52;;;;;;;5.60;4.97;;;28.10;99.90;;;;;;8303716;28;20092;-82
2022/08/17 08:10:10;;;;;;;6.28;4.82;;;28.60;97.00;;;;;;8304283;28;20026;-82
2022/08/17 08:14:23;;;;;;;11.50;5.40;;;28.70;94.10;;;;;;8303813;28;20026;-82
2022/08/17 08:18:23;;;;;;;6.53;4.53;;;28.10;92.30;;;;;;8303436;28;20037;-82
2022/08/17 08:22:39;;;;;;;5.20;4.70;;;28.40;94.10;;;;;;8317917;28;20026;-80
2022/08/17 08:27:00;;;;;;;6.57;5.20;;;28.30;93.20;;;;;;8302679;28;20383;-81
2022/08/17 08:31:09;;;;;;;7.97;4.78;;;27.70;93.70;;;;;;8316302;28;20030;-81
2022/08/17 08:35:21;;;;;;;5.38;4.85;;;28.10;93.10;;;;;;8300826;28;20099;-81
2022/08/17 08:39:32;;;;;;;6.07;5.30;;;29.30;93.50;;;;;;8301638;28;20101;-81
2022/08/17 08:43:48;;;;;;;9.73;4.65;;;29.80;92.50;;;;;;8316828;28;20026;-81
2022/08/17 08:48:21;;;;;;;5.18;4.60;;;29.70;88.20;;;;;;8301727;28;20026;-81
2022/08/17 08:52:43;;;;;;;5.90;4.47;;;29.90;91.50;;;;;;8281116;28;20049;-81
2022/08/17 08:57:16;;;;;;;4.80;4.30;;;30.10;87.80;;;;;;8317130;28;20403;-81
2022/08/17 09:01:35;;;;;;;4.72;4.32;;;29.80;85.20;;;;;;8275999;28;20037;-81
2022/08/17 09:05:59;;;;;;;4.95;4.45;;;30.20;85.50;;;;;;8298496;28;20030;-80
2022/08/17 09:10:10;;;;;;;6.22;4.05;;;30.40;88.80;;;;;;8288871;28;20022;-81
2022/08/17 09:14:32;;;;;;;7.05;4.57;;;29.30;87.90;;;;;;8299644;28;20030;-81
2022/08/17 09:18:41;;;;;;;6.90;4.30;;;28.80;87.10;;;;;;8301925;28;20021;-81
2022/08/17 09:22:48;;;;;;;6.22;4.28;;;29.20;91.00;;;;;;8276649;28;20033;-79
2022/08/17 09:26:57;;;;;;;7.80;4.53;;;29.40;89.80;;;;;;8299171;28;20030;-81
2022/08/17 09:31:03;;;;;;;5.97;4.32;;;28.80;89.50;;;;;;8300228;28;20032;-81
2022/08/17 09:35:13;;;;;;;8.88;4.63;;;27.90;91.40;;;;;;8284267;28;20033;-81
2022/08/17 09:39:29;;;;;;;4.03;3.70;;;27.60;91.40;;;;;;8300504;28;20403;-81
2022/08/17 09:43:29;;;;;;;6.20;3.80;;;28.30;93.00;;;;;;8299699;28;20441;-81
2022/08/17 09:47:44;;;;;;;6.15;3.90;;;29.00;86.90;;;;;;8318027;28;20077;-81
2022/08/17 09:51:51;;;;;;;5.68;4.43;;;29.30;86.50;;;;;;8295831;28;20026;-80
2022/08/17 09:56:02;;;;;;;4.57;3.75;;;29.80;86.40;;;;;;8293947;28;20049;-80
2022/08/17 10:00:22;;;;;;;5.18;3.80;;;30.90;84.20;;;;;;8326689;28;20064;-81
2022/08/17 10:04:41;;;;;;;5.13;4.03;;;30.70;82.40;;;;;;8300320;28;20521;-80
2022/08/17 10:09:06;;;;;;;5.85;4.22;;;29.80;89.40;;;;;;8296422;28;20033;-80
2022/08/17 10:13:31;;;;;;;4.90;3.80;;;30.40;82.00;;;;;;8296374;28;20029;-80
2022/08/17 10:18:08;;;;;;;4.28;3.88;;;31.10;85.10;;;;;;8292644;28;20052;-80
2022/08/17 10:26:41;;;;;;;5.75;4.63;;;31.30;82.90;;;;;;8298193;28;20241;-80
2022/08/17 10:30:55;;;;;;;6.20;3.70;;;30.90;79.50;;;;;;8282398;28;20034;-80
2022/08/17 10:35:19;;;;;;;8.48;3.60;;;29.80;84.70;;;;;;8297579;28;20104;-80
2022/08/17 10:39:49;;;;;;;4.57;3.55;;;30.00;80.60;;;;;;8267565;28;20061;-81
2022/08/17 10:44:23;;;;;;;5.38;3.13;;;30.30;81.50;;;;;;8314573;28;20033;-80
2022/08/17 10:48:30;;;;;;;4.30;3.50;;;29.90;85.90;;;;;;8282552;28;20038;-80
2022/08/17 10:52:47;;;;;;;5.40;3.50;;;30.10;80.70;;;;;;8283808;28;20088;-80
2022/08/17 10:56:49;;;;;;;4.97;3.45;;;30.00;80.40;;;;;;8292146;28;20029;-79
2022/08/17 11:00:53;;;;;;;6.45;3.28;;;29.50;82.20;;;;;;8290409;28;20037;-80
2022/08/17 11:05:07;;;;;;;4.15;3.63;;;29.00;80.70;;;;;;8291289;28;20542;-80
2022/08/17 11:09:43;;;;;;;6.32;3.53;;;30.10;79.90;;;;;;8286787;28;20117;-81
2022/08/17 11:14:13;;;;;;;5.32;3.65;;;31.10;76.90;;;;;;8292870;28;20508;-81
2022/08/17 11:18:25;;;;;;;4.03;3.40;;;32.00;80.00;;;;;;8311075;28;20025;-80
2022/08/17 11:22:37;;;;;;;4.20;3.50;;;32.40;67.90;;;;;;8305041;28;20049;-81
2022/08/17 11:26:46;;;;;;;5.95;3.33;;;32.60;69.80;;;;;;8312201;28;20048;-79
2022/08/17 11:30:51;;;;;;;3.40;2.92;;;32.70;69.80;;;;;;8281984;28;20034;-80
2022/08/17 11:35:27;;;;;;;3.78;3.47;;;33.00;67.90;;;;;;8294258;28;20064;-81
2022/08/17 11:39:52;;;;;;;3.63;3.33;;;32.70;67.30;;;;;;8284816;28;20089;-81
2022/08/17 11:44:20;;;;;;;4.72;3.25;;;33.10;69.90;;;;;;8294604;28;20056;-81
2022/08/17 11:53:04;;;;;;;4.13;3.72;;;34.80;62.10;;;;;;8283712;28;20045;-81
2022/08/17 11:57:24;;;;;;;5.70;3.47;;;34.40;62.70;;;;;;8294501;28;20448;-81
2022/08/17 12:01:25;;;;;;;3.95;3.47;;;33.50;64.80;;;;;;8295793;28;20081;-80
2022/08/17 12:26:37;;;;;;;4.25;3.72;;;29.20;78.70;;;;;;8375236;27;20490;-77
2022/08/17 12:34:49;;;;;;;3.80;3.42;;;29.70;76.20;;;;;;8271634;28;20056;-77
2022/08/17 12:39:00;;;;;;;3.92;3.33;;;29.60;79.80;;;;;;8299250;28;20072;-77
2022/08/17 12:43:07;;;;;;;3.70;3.17;;;30.50;70.90;;;;;;8280050;28;20036;-76
2022/08/17 12:47:16;;;;;;;4.00;3.08;;;32.30;69.90;;;;;;8318500;22;20490;-82
2022/08/17 12:51:17;;;;;;;3.83;2.63;;;33.90;64.40;;;;;;8344466;28;20042;-81
2022/08/17 12:55:23;;;;;;;3.78;2.83;;;34.00;60.20;;;;;;8335614;28;20096;-82
2022/08/17 12:59:24;;;;;;;3.67;3.10;;;33.90;63.70;;;;;;8323533;28;20018;-82
2022/08/17 13:03:30;;;;;;;3.25;2.95;;;33.90;61.90;;;;;;8339584;28;20033;-83
2022/08/17 13:07:43;;;;;;;4.63;3.00;;;34.20;68.00;;;;;;8320795;28;20124;-82
2022/08/17 13:11:54;;;;;;;5.13;2.90;;;34.90;59.40;;;;;;8322535;28;20125;-83
2022/08/17 13:16:04;;;;;;;5.63;3.22;;;34.40;63.00;;;;;;8333804;28;20021;-82
2022/08/17 13:20:13;;;;;;;4.60;2.88;;;33.90;61.90;;;;;;8337962;28;20537;-82
2022/08/17 13:24:28;;;;;;;3.77;3.43;;;34.40;62.00;;;;;;8310451;28;20022;-82
2022/08/17 13:28:28;;;;;;;4.35;3.40;;;34.20;62.30;;;;;;8305527;28;20034;-82
2022/08/17 13:32:47;;;;;;;5.03;3.25;;;33.50;58.70;;;;;;8285324;28;20129;-81
2022/08/17 13:36:48;;;;;;;5.47;3.22;;;33.70;59.30;;;;;;8305837;28;20394;-81
2022/08/17 13:40:51;;;;;;;6.47;2.78;;;34.30;60.00;;;;;;8287593;28;20072;-82
2022/08/17 13:44:52;;;;;;;5.20;3.67;;;34.60;57.90;;;;;;8313320;28;20072;-83
2022/08/17 13:49:12;;;;;;;4.50;3.63;;;33.40;62.00;;;;;;8308520;28;20490;-82
2022/08/17 13:53:32;;;;;;;4.85;3.63;;;32.60;63.90;;;;;;8316738;28;20021;-82
2022/08/17 13:57:34;;;;;;;6.25;3.30;;;32.90;61.30;;;;;;8315559;28;20026;-83
2022/08/17 14:01:41;;;;;;;3.78;3.38;;;32.70;63.40;;;;;;8303336;28;20026;-82
2022/08/17 14:05:41;;;;;;;5.32;3.05;;;32.20;64.60;;;;;;8323378;28;20055;-80
2022/08/17 14:09:53;;;;;;;5.43;3.70;;;33.10;61.90;;;;;;8280731;28;20037;-81
2022/08/17 14:13:53;;;;;;;4.65;4.00;;;33.30;61.50;;;;;;8285072;28;20516;-81
2022/08/17 14:17:54;;;;;;;5.57;3.47;;;31.90;65.30;;;;;;8299307;28;20021;-82
2022/08/17 14:21:57;;;;;;;4.90;3.80;;;30.80;70.30;;;;;;8301452;28;20521;-81
2022/08/17 14:25:58;;;;;;;4.45;3.80;;;31.40;66.70;;;;;;8312514;28;20034;-82
2022/08/17 14:30:00;;;;;;;3.95;3.55;;;31.00;68.80;;;;;;8302600;28;20403;-82
2022/08/17 14:34:00;;;;;;;5.63;3.72;;;32.10;65.50;;;;;;8291604;28;20028;-83
2022/08/17 14:38:01;;;;;;;6.10;3.97;;;32.00;67.30;;;;;;8281879;28;20526;-83
2022/08/17 14:42:02;;;;;;;5.85;3.92;;;31.90;65.40;;;;;;8296129;28;20022;-82
2022/08/17 14:46:02;;;;;;;5.30;3.80;;;31.60;65.60;;;;;;8295762;28;20037;-82
2022/08/17 14:50:04;;;;;;;7.45;3.55;;;30.50;68.20;;;;;;8295295;28;20025;-82
2022/08/17 14:54:05;;;;;;;4.75;3.60;;;30.40;71.90;;;;;;8274192;28;20025;-83
2022/08/17 14:58:07;;;;;;;3.78;3.38;;;30.20;71.80;;;;;;8273480;28;20030;-83
2022/08/17 15:02:09;;;;;;;4.28;3.70;;;30.20;69.70;;;;;;8310899;28;20013;-83
2022/08/17 15:06:13;;;;;;;5.18;3.90;;;29.60;72.50;;;;;;8299027;28;20050;-82
2022/08/17 15:10:15;;;;;;;3.53;3.17;;;29.00;75.50;;;;;;8298004;28;20036;-82
2022/08/17 15:14:15;;;;;;;6.72;3.63;;;28.30;76.70;;;;;;8308970;28;20717;-83
2022/08/17 15:18:16;;;;;;;5.63;3.72;;;28.10;75.20;;;;;;8318253;28;20021;-83
2022/08/17 15:22:23;;;;;;;4.53;3.85;;;28.00;76.90;;;;;;8291145;28;20081;-81
2022/08/17 15:26:24;;;;;;;4.78;3.85;;;27.70;77.70;;;;;;8290287;28;20026;-82
2022/08/17 15:30:26;;;;;;;3.78;3.25;;;27.70;77.30;;;;;;8293755;28;20044;-82
2022/08/17 15:34:26;;;;;;;4.50;3.83;;;27.80;77.00;;;;;;8285572;28;20642;-82
2022/08/17 15:38:28;;;;;;;5.43;3.40;;;27.70;77.50;;;;;;8307328;28;20037;-83
2022/08/17 15:42:29;;;;;;;4.80;3.60;;;27.60;78.60;;;;;;8307943;28;20045;-84
2022/08/17 15:46:29;;;;;;;8.75;3.83;;;27.90;78.60;;;;;;8306677;28;20041;-82
2022/08/17 15:50:30;;;;;;;9.43;4.53;;;27.90;81.00;;;;;;8306252;28;20021;-83
2022/08/17 15:54:31;;;;;;;5.25;3.95;;;27.90;81.80;;;;;;8311452;28;20613;-82
2022/08/17 15:58:33;;;;;;;5.30;3.88;;;27.80;81.00;;;;;;8313069;28;20030;-82
2022/08/17 16:02:34;;;;;;;4.90;3.55;;;27.80;82.20;;;;;;8285941;28;20597;-82
2022/08/17 16:06:35;;;;;;;3.55;3.10;;;27.70;81.40;;;;;;8297620;28;20443;-82
2022/08/17 16:10:35;;;;;;;4.43;3.72;;;27.60;81.00;;;;;;8284525;28;20033;-83
2022/08/17 16:14:36;;;;;;;4.18;3.65;;;27.60;83.50;;;;;;8300935;28;20180;-83
2022/08/17 16:18:37;;;;;;;7.03;3.60;;;27.60;83.50;;;;;;8304705;28;20048;-83
2022/08/17 16:22:42;;;;;;;7.75;3.40;;;27.40;85.20;;;;;;8304828;28;20037;-84
2022/08/17 16:26:42;;;;;;;5.95;3.50;;;27.10;86.60;;;;;;8286387;28;20033;-82
2022/08/17 16:30:43;;;;;;;4.10;3.60;;;27.00;87.20;;;;;;8288450;28;20030;-82
2022/08/17 16:34:44;;;;;;;4.20;3.35;;;26.80;87.90;;;;;;8307222;28;20125;-82
2022/08/17 16:38:45;;;;;;;4.95;3.90;;;26.60;88.60;;;;;;8287735;28;20031;-82
2022/08/17 16:42:47;;;;;;;5.07;3.83;;;26.50;88.30;;;;;;8312759;28;20032;-83
2022/08/17 16:46:49;;;;;;;4.20;3.80;;;26.40;90.50;;;;;;8289377;28;20109;-83
2022/08/17 16:50:49;;;;;;;5.25;3.63;;;26.40;92.20;;;;;;8300291;28;20429;-83
2022/08/17 16:54:51;;;;;;;4.53;3.42;;;26.20;91.70;;;;;;8294197;28;20021;-83
2022/08/17 16:58:52;;;;;;;6.50;3.50;;;26.00;92.00;;;;;;8283779;28;20446;-84
2022/08/17 17:02:53;;;;;;;4.00;3.60;;;25.90;91.90;;;;;;8315801;28;20034;-84
2022/08/17 17:07:03;;;;;;;6.80;3.50;;;25.60;91.50;;;;;;8319793;28;20027;-83
2022/08/17 17:11:21;;;;;;;4.20;3.28;;;25.60;93.30;;;;;;8303906;28;20034;-83
2022/08/17 17:15:26;;;;;;;9.05;3.40;;;25.70;92.10;;;;;;8304198;28;20030;-83
2022/08/17 17:19:30;;;;;;;5.60;3.28;;;26.00;90.50;;;;;;8290981;28;20026;-83
2022/08/17 17:24:00;;;;;;;3.78;3.10;;;25.70;89.50;;;;;;8292402;28;20022;-83
2022/08/17 17:28:41;;;;;;;3.83;3.45;;;25.60;90.30;;;;;;8324212;28;20561;-83
2022/08/17 17:32:51;;;;;;;3.95;3.60;;;25.40;90.70;;;;;;8288078;28;20438;-83
2022/08/17 17:36:56;;;;;;;8.60;3.60;;;25.20;95.00;;;;;;8289470;28;20018;-83
2022/08/17 17:41:03;;;;;;;5.47;3.72;;;24.70;95.40;;;;;;8290644;28;20453;-83
2022/08/17 17:45:31;;;;;;;6.70;3.38;;;24.60;95.40;;;;;;8314514;28;20025;-83
2022/08/17 17:49:45;;;;;;;4.32;3.45;;;24.40;93.50;;;;;;8305352;28;20118;-83
2022/08/17 17:54:23;;;;;;;5.55;3.38;;;24.30;93.20;;;;;;8299191;28;21531;-83
2022/08/17 17:58:51;;;;;;;4.10;3.40;;;24.20;93.50;;;;;;8290280;28;20091;-84
2022/08/17 18:03:11;;;;;;;8.70;3.60;;;24.10;93.30;;;;;;8299963;28;20108;-84
2022/08/17 18:07:36;;;;;;;5.70;3.58;;;23.80;94.20;;;;;;8306812;28;20331;-82
2022/08/17 18:12:05;;;;;;;8.32;4.32;;;23.60;95.30;;;;;;8310270;28;20534;-82
2022/08/17 18:16:11;;;;;;;5.30;4.10;;;23.40;97.60;;;;;;8286154;28;20026;-80
2022/08/17 18:20:12;;;;;;;5.88;3.90;;;23.30;97.80;;;;;;8278345;28;20029;-80
2022/08/17 18:24:13;;;;;;;4.30;3.30;;;23.30;96.80;;;;;;8282916;28;20034;-80
2022/08/17 18:28:37;;;;;;;4.13;3.58;;;23.10;97.50;;;;;;8300804;28;20397;-80
2022/08/17 18:32:41;;;;;;;3.72;3.40;;;22.80;97.40;;;;;;8278626;28;20026;-80
2022/08/17 18:36:41;;;;;;;3.83;3.45;;;22.70;97.40;;;;;;8287036;28;20068;-80
2022/08/17 18:40:42;;;;;;;3.60;3.30;;;22.60;97.50;;;;;;8285924;28;20034;-79
2022/08/17 18:44:43;;;;;;;3.55;3.17;;;22.60;98.20;;;;;;8279812;28;20601;-82
2022/08/17 18:49:00;;;;;;;5.10;3.53;;;22.60;98.10;;;;;;8275730;28;20044;-82
2022/08/17 18:53:25;;;;;;;3.80;3.38;;;22.90;97.20;;;;;;8283317;28;20068;-81
2022/08/17 18:57:36;;;;;;;4.30;3.42;;;23.20;97.00;;;;;;8286563;28;20045;-81
2022/08/17 19:01:41;;;;;;;3.72;3.42;;;23.20;97.30;;;;;;8287943;28;20103;-82
2022/08/17 19:05:48;;;;;;;5.03;3.63;;;22.90;97.40;;;;;;8290193;23;20074;-78
2022/08/17 19:09:54;;;;;;;4.63;3.80;;;22.70;99.90;;;;;;8273384;28;20125;-79
2022/08/17 19:14:06;;;;;;;4.15;3.75;;;22.20;99.90;;;;;;8286732;28;20037;-79
2022/08/17 19:18:29;;;;;;;4.85;3.83;;;21.90;99.90;;;;;;8273784;28;20027;-79
2022/08/17 19:22:50;;;;;;;4.03;3.60;;;21.50;99.90;;;;;;8276326;28;20057;-78
2022/08/17 19:26:56;;;;;;;7.63;3.85;;;21.70;99.90;;;;;;8267831;28;20037;-79
2022/08/17 19:31:02;;;;;;;5.78;3.97;;;21.90;99.90;;;;;;8270660;28;20049;-78
2022/08/17 19:35:06;;;;;;;7.32;4.53;;;22.40;99.90;;;;;;8274002;28;20033;-78
2022/08/17 19:39:17;;;;;;;14.15;4.40;;;22.30;99.90;;;;;;8269539;28;20109;-78
2022/08/17 19:43:49;;;;;;;8.73;5.20;;;22.90;99.90;;;;;;8264911;28;20098;-77
2022/08/17 19:48:02;;;;;;;9.55;4.78;;;22.20;99.90;;;;;;8263368;28;20511;-77
2022/08/17 19:52:08;;;;;;;7.15;4.47;;;21.40;99.90;;;;;;8259984;28;20094;-76
2022/08/17 19:56:29;;;;;;;8.30;5.47;;;20.80;99.90;;;;;;8260757;28;20034;-77
2022/08/17 20:00:32;;;;;;;;;;;20.30;99.90;;;;;;8260026;28;20029;-77
2022/08/17 20:04:39;;;;;;;9.15;5.88;;;19.80;99.90;;;;;;8260988;28;19918;-77
2022/08/17 20:09:02;;;;;;;8.23;6.15;;;19.50;99.90;;;;;;8260099;28;20444;-77
2022/08/17 20:13:08;;;;;;;9.85;6.13;;;19.40;99.90;;;;;;8281437;28;20033;-77
2022/08/17 20:17:11;;;;;;;11.20;7.53;;;19.30;99.90;;;;;;8278842;28;20034;-77
2022/08/17 20:21:25;;;;;;;9.85;7.60;;;19.20;99.90;;;;;;8262157;28;20105;-78
2022/08/17 20:26:05;;;;;;;9.43;7.32;;;19.20;99.90;;;;;;8263663;28;20034;-78
2022/08/17 20:30:28;;;;;;;8.55;7.15;;;19.20;99.90;;;;;;8268470;28;20042;-79
2022/08/17 20:34:33;;;;;;;9.45;7.43;;;19.10;99.90;;;;;;8277055;28;20026;-80
2022/08/17 20:38:49;;;;;;;10.75;7.63;;;18.80;99.90;;;;;;8280804;28;20403;-78
2022/08/17 20:42:50;;;;;;;8.25;6.97;;;18.70;99.90;;;;;;8279755;28;20404;-79
2022/08/17 20:46:59;;;;;;;9.68;6.88;;;18.60;99.90;;;;;;8285829;28;20021;-79
2022/08/17 20:51:31;;;;;;;10.38;7.45;;;18.40;99.90;;;;;;8286334;28;20419;-79
2022/08/17 20:55:35;;;;;;;8.80;6.18;;;18.20;99.90;;;;;;8280387;28;20516;-79
2022/08/17 20:59:53;;;;;;;7.68;6.78;;;18.30;99.90;;;;;;8294829;28;20031;-79
2022/08/17 21:03:54;;;;;;;11.00;7.60;;;18.50;99.90;;;;;;8276426;28;20034;-79
2022/08/17 21:07:59;;;;;;;9.25;7.20;;;18.60;99.90;;;;;;8286205;28;20399;-79
2022/08/17 21:12:01;;;;;;;11.90;8.77;;;18.50;99.90;;;;;;8282686;28;20411;-79
2022/08/17 21:16:08;;;;;;;10.20;9.13;;;18.70;99.90;;;;;;8294715;28;20057;-79
2022/08/17 21:20:33;;;;;;;9.93;8.60;;;18.70;99.90;;;;;;8294586;28;20080;-79
2022/08/17 21:24:55;;;;;;;14.85;9.30;;;18.70;99.90;;;;;;8297378;28;20079;-81
2022/08/17 21:29:18;;;;;;;11.43;8.25;;;18.50;99.90;;;;;;8285061;28;20030;-82
2022/08/17 21:33:25;;;;;;;10.10;7.88;;;18.70;99.90;;;;;;8278749;28;20022;-82
2022/08/17 21:37:33;;;;;;;15.93;8.65;;;18.50;99.90;;;;;;8278454;28;20027;-84
2022/08/17 21:41:51;;;;;;;14.75;11.00;;;18.50;99.90;;;;;;8288486;28;20106;-86
2022/08/17 21:46:23;;;;;;;11.80;8.15;;;18.20;99.90;;;;;;8275287;28;20025;-86
2022/08/17 21:50:28;;;;;;;12.35;8.23;;;18.20;99.90;;;;;;8286738;28;20083;-87
2022/08/17 21:59:43;;;;;;;10.35;7.60;;;18.00;99.90;;;;;;8251835;28;20041;-89
2022/08/17 22:04:04;;;;;;;9.23;6.15;;;17.90;99.90;;;;;;8217664;28;20190;-86
2022/08/17 22:08:08;;;;;;;;;;;17.90;99.90;;;;;;8222434;28;20034;-84
2022/08/17 22:12:18;;;;;;;6.22;4.75;;;17.90;99.90;;;;;;8271127;28;19912;-84
2022/08/17 22:16:23;;;;;;;8.95;5.93;;;17.80;99.90;;;;;;8283384;28;20033;-86
2022/08/17 22:20:23;;;;;;;6.82;5.18;;;17.60;99.90;;;;;;8292607;28;20128;-86
2022/08/17 22:44:25;;;;;;;4.80;4.10;;;17.50;99.90;;;;;;8150458;29;20054;-88